Time;durP1;ratioP1;P1;durP2;ratioP2;P2;SDS_P1;SDS_P2;PMS_P1;PMS_P2;Temp;Humidity;BMP_temperature;BMP_pressure;BME280_temperature;BME280_humidity;BME280_pressure;Samples;Min_cycle;Max_cycle;Signal;HPM_P1;HPM_P2
2021/01/25 00:01:40;;;;;;;10.80;7.18;;;;;;;;;;5031467;28;20450;-80
2021/01/25 00:04:06;;;;;;;8.13;7.03;;;;;;;;;;5032165;28;20189;-79
2021/01/25 00:06:32;;;;;;;12.80;7.97;;;;;;;;;;5032509;28;20189;-79
2021/01/25 00:08:58;;;;;;;8.98;7.95;;;;;;;;;;5031287;28;20252;-79
2021/01/25 00:11:24;;;;;;;11.02;7.40;;;;;;;;;;5028625;28;20703;-80
2021/01/25 00:13:50;;;;;;;14.23;8.63;;;;;;;;;;5014786;28;20220;-79
2021/01/25 00:16:16;;;;;;;9.00;7.60;;;;;;;;;;5011742;28;20190;-80
2021/01/25 00:18:42;;;;;;;10.83;8.27;;;;;;;;;;5011822;28;20439;-79
2021/01/25 00:21:08;;;;;;;11.60;7.50;;;;;;;;;;5012226;28;20534;-79
2021/01/25 00:23:34;;;;;;;8.57;6.67;;;;;;;;;;5011610;28;20428;-78
2021/01/25 00:26:00;;;;;;;13.37;6.70;;;;;;;;;;5012351;28;20425;-79
2021/01/25 00:28:26;;;;;;;8.90;7.00;;;;;;;;;;5010184;28;20447;-79
2021/01/25 00:30:52;;;;;;;16.15;8.27;;;;;;;;;;5011320;28;20267;-78
2021/01/25 00:33:18;;;;;;;9.85;7.35;;;;;;;;;;5011785;28;20285;-79
2021/01/25 00:35:44;;;;;;;10.03;8.30;;;;;;;;;;5012181;28;20601;-79
2021/01/25 00:38:12;;;;;;;9.07;8.07;;;;;;;;;;5010267;28;20437;-79
2021/01/25 00:40:38;;;;;;;9.77;6.95;;;;;;;;;;5011936;28;20423;-79
2021/01/25 00:43:04;;;;;;;11.05;8.02;;;;;;;;;;5011991;28;20208;-79
2021/01/25 00:45:30;;;;;;;11.25;8.10;;;;;;;;;;5011501;28;20187;-78
2021/01/25 00:47:56;;;;;;;13.00;8.73;;;;;;;;;;5011192;28;20195;-79
2021/01/25 00:50:23;;;;;;;11.00;7.75;;;;;;;;;;5010735;28;20718;-79
2021/01/25 00:52:49;;;;;;;10.57;7.80;;;;;;;;;;5010484;28;20183;-79
2021/01/25 00:55:15;;;;;;;10.50;7.72;;;;;;;;;;5012260;28;20211;-79
2021/01/25 00:57:42;;;;;;;17.88;9.68;;;;;;;;;;5011441;28;20246;-79
2021/01/25 01:00:09;;;;;;;11.15;8.40;;;;;;;;;;5010666;28;20174;-79
2021/01/25 01:02:35;;;;;;;15.68;8.68;;;;;;;;;;5011274;28;20233;-79
2021/01/25 01:05:01;;;;;;;10.63;8.30;;;;;;;;;;5011403;28;20180;-79
2021/01/25 01:07:27;;;;;;;11.65;8.00;;;;;;;;;;5009929;28;20203;-79
2021/01/25 01:09:53;;;;;;;11.10;7.77;;;;;;;;;;5010751;28;20661;-78
2021/01/25 01:12:19;;;;;;;12.27;9.45;;;;;;;;;;5017592;28;20804;-78
2021/01/25 01:14:45;;;;;;;14.13;8.67;;;;;;;;;;5027403;28;20207;-78
2021/01/25 01:17:11;;;;;;;17.00;9.47;;;;;;;;;;5030213;28;20483;-79
2021/01/25 01:19:37;;;;;;;16.37;10.60;;;;;;;;;;5030852;28;20790;-79
2021/01/25 01:22:03;;;;;;;14.57;9.68;;;;;;;;;;5031312;28;20417;-79
2021/01/25 01:24:29;;;;;;;11.10;8.52;;;;;;;;;;5029921;28;20182;-79
2021/01/25 01:26:55;;;;;;;12.33;10.13;;;;;;;;;;5030801;28;20617;-79
2021/01/25 01:29:21;;;;;;;11.07;9.57;;;;;;;;;;5031085;28;20528;-78
2021/01/25 01:31:47;;;;;;;15.85;10.10;;;;;;;;;;5029151;28;20190;-78
2021/01/25 01:34:13;;;;;;;12.47;10.07;;;;;;;;;;5030417;28;20202;-79
2021/01/25 01:36:39;;;;;;;12.73;8.40;;;;;;;;;;5030695;28;20430;-79
2021/01/25 01:39:05;;;;;;;12.10;8.70;;;;;;;;;;5029866;28;20195;-78
2021/01/25 01:41:35;;;;;;;10.27;7.97;;;;;;;;;;5031283;28;20430;-78
2021/01/25 01:44:02;;;;;;;10.88;8.82;;;;;;;;;;5031061;28;20190;-78
2021/01/25 01:46:28;;;;;;;11.50;9.85;;;;;;;;;;5030747;28;20261;-79
2021/01/25 01:48:54;;;;;;;10.32;8.40;;;;;;;;;;5031482;28;20333;-79
2021/01/25 01:51:20;;;;;;;10.07;8.65;;;;;;;;;;5036218;28;20668;-80
2021/01/25 01:53:46;;;;;;;11.40;8.70;;;;;;;;;;5036598;28;20194;-79
2021/01/25 01:56:12;;;;;;;11.73;9.20;;;;;;;;;;5036643;28;20265;-81
2021/01/25 01:58:38;;;;;;;13.77;9.32;;;;;;;;;;5036045;28;20423;-79
2021/01/25 02:01:04;;;;;;;12.50;9.43;;;;;;;;;;5036335;28;20174;-78
2021/01/25 02:03:30;;;;;;;12.80;8.80;;;;;;;;;;5036525;28;20480;-80
2021/01/25 02:05:56;;;;;;;10.40;8.83;;;;;;;;;;5036297;28;20688;-80
2021/01/25 02:08:23;;;;;;;12.05;9.25;;;;;;;;;;5035833;28;20425;-80
2021/01/25 02:10:50;;;;;;;12.75;9.40;;;;;;;;;;5035859;28;20195;-79
2021/01/25 02:13:17;;;;;;;12.02;8.77;;;;;;;;;;5035997;28;20211;-80
2021/01/25 02:15:43;;;;;;;12.93;8.75;;;;;;;;;;5036083;28;20180;-79
2021/01/25 02:18:09;;;;;;;11.88;8.20;;;;;;;;;;5035696;28;20190;-79
2021/01/25 02:20:37;;;;;;;11.98;8.60;;;;;;;;;;5036094;28;20531;-79
2021/01/25 02:23:21;;;;;;;11.23;9.48;;;;;;;;;;5035933;28;20194;-80
2021/01/25 02:25:47;;;;;;;13.23;8.38;;;;;;;;;;5036025;28;20184;-78
2021/01/25 02:28:14;;;;;;;9.82;7.55;;;;;;;;;;5035532;28;20205;-79
2021/01/25 02:30:40;;;;;;;9.65;8.20;;;;;;;;;;5035900;28;20174;-79
2021/01/25 02:33:07;;;;;;;10.68;8.00;;;;;;;;;;5034637;28;20199;-78
2021/01/25 02:35:34;;;;;;;10.60;8.15;;;;;;;;;;5035809;28;20199;-78
2021/01/25 02:38:01;;;;;;;9.98;7.90;;;;;;;;;;5035355;28;20364;-80
2021/01/25 02:40:28;;;;;;;10.38;8.13;;;;;;;;;;5035649;28;20171;-78
2021/01/25 02:42:55;;;;;;;8.80;7.68;;;;;;;;;;5035754;28;20167;-78
2021/01/25 02:45:23;;;;;;;12.95;8.52;;;;;;;;;;5035445;28;20185;-80
2021/01/25 02:47:50;;;;;;;11.73;9.15;;;;;;;;;;5035102;28;20238;-79
2021/01/25 02:50:15;;;;;;;14.50;8.95;;;;;;;;;;5035542;28;20180;-78
2021/01/25 02:52:41;;;;;;;11.00;9.33;;;;;;;;;;5035417;28;20170;-79
2021/01/25 02:55:08;;;;;;;12.65;9.40;;;;;;;;;;5035393;28;20413;-79
2021/01/25 02:57:35;;;;;;;10.43;7.82;;;;;;;;;;5034979;28;20201;-79
2021/01/25 03:00:02;;;;;;;9.80;8.60;;;;;;;;;;5035321;28;20177;-79
2021/01/25 03:02:28;;;;;;;12.13;8.80;;;;;;;;;;5035293;28;20177;-78
2021/01/25 03:04:54;;;;;;;13.73;9.98;;;;;;;;;;5035112;28;20189;-79
2021/01/25 03:07:20;;;;;;;12.50;8.98;;;;;;;;;;5034952;28;20248;-80
2021/01/25 03:09:46;;;;;;;18.02;9.27;;;;;;;;;;5036309;28;20652;-78
2021/01/25 03:12:12;;;;;;;14.93;9.35;;;;;;;;;;5035005;28;20187;-79
2021/01/25 03:14:44;;;;;;;12.65;9.43;;;;;;;;;;5034839;28;20207;-80
2021/01/25 03:17:11;;;;;;;16.33;10.55;;;;;;;;;;5034537;28;20205;-78
2021/01/25 03:19:37;;;;;;;12.73;10.55;;;;;;;;;;5034672;28;20175;-78
2021/01/25 03:22:03;;;;;;;10.80;8.57;;;;;;;;;;5033629;28;20585;-80
2021/01/25 03:24:29;;;;;;;12.77;9.80;;;;;;;;;;5034815;28;20220;-78
2021/01/25 03:26:55;;;;;;;12.80;10.53;;;;;;;;;;5034540;28;20175;-80
2021/01/25 03:29:21;;;;;;;11.80;8.93;;;;;;;;;;5034721;28;20458;-80
2021/01/25 03:31:47;;;;;;;13.85;8.68;;;;;;;;;;5034659;28;20670;-78
2021/01/25 03:34:13;;;;;;;12.80;10.63;;;;;;;;;;5034747;28;20203;-79
2021/01/25 03:36:39;;;;;;;10.63;8.97;;;;;;;;;;5034289;28;20417;-78
2021/01/25 03:39:06;;;;;;;12.95;9.20;;;;;;;;;;5034850;28;20445;-79
2021/01/25 03:41:33;;;;;;;16.58;10.50;;;;;;;;;;5034480;28;20172;-78
2021/01/25 03:43:59;;;;;;;12.88;9.82;;;;;;;;;;5034445;28;20537;-80
2021/01/25 03:46:25;;;;;;;11.68;9.05;;;;;;;;;;5034467;28;20181;-78
2021/01/25 03:48:51;;;;;;;14.07;9.67;;;;;;;;;;5034084;28;20191;-79
2021/01/25 03:51:19;;;;;;;16.90;9.52;;;;;;;;;;5034540;28;20465;-79
2021/01/25 03:53:45;;;;;;;11.55;9.00;;;;;;;;;;5034292;28;20205;-77
2021/01/25 03:56:11;;;;;;;9.68;8.50;;;;;;;;;;5034202;28;20265;-79
2021/01/25 03:58:37;;;;;;;13.35;9.57;;;;;;;;;;5033907;28;20221;-79
2021/01/25 04:01:03;;;;;;;13.48;9.10;;;;;;;;;;5034307;28;20571;-78
2021/01/25 04:03:29;;;;;;;11.53;8.70;;;;;;;;;;5034126;28;20234;-79
2021/01/25 04:05:55;;;;;;;12.60;8.80;;;;;;;;;;5033925;28;20890;-78
2021/01/25 04:08:21;;;;;;;12.20;9.73;;;;;;;;;;5033638;28;20496;-80
2021/01/25 04:10:47;;;;;;;12.40;9.63;;;;;;;;;;5033721;28;20431;-79
2021/01/25 04:13:13;;;;;;;13.50;10.00;;;;;;;;;;5033376;28;20460;-80
2021/01/25 04:15:39;;;;;;;13.90;10.43;;;;;;;;;;5033782;28;20308;-79
2021/01/25 04:18:05;;;;;;;12.73;8.80;;;;;;;;;;5033288;28;20421;-78
2021/01/25 04:20:31;;;;;;;11.10;9.40;;;;;;;;;;5033704;28;20227;-78
2021/01/25 04:22:57;;;;;;;14.20;9.70;;;;;;;;;;5033650;28;20178;-80
2021/01/25 04:25:23;;;;;;;14.05;9.85;;;;;;;;;;5033854;28;20515;-79
2021/01/25 04:27:49;;;;;;;9.75;8.55;;;;;;;;;;5033294;28;20274;-80
2021/01/25 04:30:15;;;;;;;11.77;9.20;;;;;;;;;;5033584;28;20175;-80
2021/01/25 04:32:42;;;;;;;11.85;9.05;;;;;;;;;;5033554;28;20406;-78
2021/01/25 04:35:12;;;;;;;12.35;9.88;;;;;;;;;;5033456;28;20208;-80
2021/01/25 04:37:38;;;;;;;13.32;10.57;;;;;;;;;;5031881;28;20209;-80
2021/01/25 04:40:05;;;;;;;12.05;9.05;;;;;;;;;;5033692;28;20179;-80
2021/01/25 04:42:31;;;;;;;16.60;9.65;;;;;;;;;;5033433;28;20185;-79
2021/01/25 04:44:58;;;;;;;11.45;10.02;;;;;;;;;;5033554;28;20250;-80
2021/01/25 04:47:24;;;;;;;13.35;9.93;;;;;;;;;;5033053;28;20190;-79
2021/01/25 04:49:54;;;;;;;11.18;9.60;;;;;;;;;;5033470;28;20543;-79
2021/01/25 04:52:20;;;;;;;12.52;11.23;;;;;;;;;;5033160;28;20167;-78
2021/01/25 04:54:47;;;;;;;13.80;10.73;;;;;;;;;;5033110;28;20203;-79
2021/01/25 04:57:16;;;;;;;11.65;10.13;;;;;;;;;;5032896;28;20670;-81
2021/01/25 04:59:45;;;;;;;12.10;9.32;;;;;;;;;;5033167;28;20170;-79
2021/01/25 05:02:12;;;;;;;13.38;10.38;;;;;;;;;;5033143;28;20529;-79
2021/01/25 05:04:38;;;;;;;14.63;10.85;;;;;;;;;;5033189;28;20177;-80
2021/01/25 05:07:04;;;;;;;17.45;9.63;;;;;;;;;;5032853;28;20188;-79
2021/01/25 05:09:30;;;;;;;12.77;10.00;;;;;;;;;;5033102;28;20530;-80
2021/01/25 05:11:57;;;;;;;11.38;9.00;;;;;;;;;;5033120;28;20200;-80
2021/01/25 05:14:23;;;;;;;12.57;10.35;;;;;;;;;;5032935;28;20204;-79
2021/01/25 05:16:49;;;;;;;11.57;10.37;;;;;;;;;;5032595;28;20188;-79
2021/01/25 05:19:15;;;;;;;12.35;10.35;;;;;;;;;;5033022;28;20415;-78
2021/01/25 05:21:42;;;;;;;17.92;11.52;;;;;;;;;;5033053;28;20174;-78
2021/01/25 05:24:10;;;;;;;15.68;11.20;;;;;;;;;;5034237;28;20170;-79
2021/01/25 05:26:40;;;;;;;16.75;12.45;;;;;;;;;;5036744;28;20179;-79
2021/01/25 05:29:06;;;;;;;18.55;13.57;;;;;;;;;;5036853;28;20219;-78
2021/01/25 05:31:32;;;;;;;14.88;11.52;;;;;;;;;;5037017;28;20183;-78
2021/01/25 05:33:58;;;;;;;18.00;12.45;;;;;;;;;;5036776;28;20287;-79
2021/01/25 05:36:25;;;;;;;17.58;11.23;;;;;;;;;;5036816;28;20168;-79
2021/01/25 05:38:52;;;;;;;16.63;11.80;;;;;;;;;;5036642;28;20194;-80
2021/01/25 05:41:18;;;;;;;15.13;11.02;;;;;;;;;;5036897;28;20578;-80
2021/01/25 05:43:45;;;;;;;13.98;10.57;;;;;;;;;;5036811;28;20203;-78
2021/01/25 05:46:14;;;;;;;13.55;10.60;;;;;;;;;;5035492;28;20182;-78
2021/01/25 05:48:41;;;;;;;14.52;11.65;;;;;;;;;;5034813;28;20612;-78
2021/01/25 05:51:14;;;;;;;15.15;11.65;;;;;;;;;;5036684;28;20261;-79
2021/01/25 05:53:41;;;;;;;16.60;10.63;;;;;;;;;;5035441;28;20213;-79
2021/01/25 05:56:08;;;;;;;17.13;12.35;;;;;;;;;;5036544;28;20691;-78
2021/01/25 05:58:34;;;;;;;17.20;11.10;;;;;;;;;;5034659;28;20207;-80
2021/01/25 06:01:01;;;;;;;15.00;12.18;;;;;;;;;;5036376;28;20163;-77
2021/01/25 06:03:27;;;;;;;14.75;11.68;;;;;;;;;;5035178;28;20188;-80
2021/01/25 06:05:54;;;;;;;14.73;11.27;;;;;;;;;;5036480;28;20179;-79
2021/01/25 06:08:38;;;;;;;14.10;10.13;;;;;;;;;;5035944;28;20203;-78
2021/01/25 06:11:09;;;;;;;15.02;11.65;;;;;;;;;;5035997;28;20250;-79
2021/01/25 06:14:04;;;;;;;15.48;11.80;;;;;;;;;;5036052;28;20211;-77
2021/01/25 06:16:30;;;;;;;21.02;12.90;;;;;;;;;;4999470;28;20269;-80
2021/01/25 06:19:01;;;;;;;21.63;13.23;;;;;;;;;;5034220;28;20214;-78
2021/01/25 06:21:30;;;;;;;17.60;12.80;;;;;;;;;;5035991;28;20246;-79
2021/01/25 06:24:01;;;;;;;18.52;13.23;;;;;;;;;;5035934;28;20704;-79
2021/01/25 06:26:27;;;;;;;16.17;12.43;;;;;;;;;;5035954;28;20164;-78
2021/01/25 06:28:53;;;;;;;18.35;12.65;;;;;;;;;;5034281;28;20691;-78
2021/01/25 06:31:23;;;;;;;17.15;12.23;;;;;;;;;;5035893;28;20224;-80
2021/01/25 06:33:50;;;;;;;24.02;15.18;;;;;;;;;;5021499;28;20195;-80
2021/01/25 06:36:17;;;;;;;16.85;13.32;;;;;;;;;;5015407;28;20177;-80
2021/01/25 06:38:44;;;;;;;20.27;14.48;;;;;;;;;;5015509;28;20199;-78
2021/01/25 06:41:11;;;;;;;22.92;13.35;;;;;;;;;;5015835;28;20581;-79
2021/01/25 06:43:39;;;;;;;19.65;13.40;;;;;;;;;;5014452;28;20184;-77
2021/01/25 06:46:05;;;;;;;20.20;14.63;;;;;;;;;;5015855;28;20501;-77
2021/01/25 06:48:34;;;;;;;21.50;14.60;;;;;;;;;;5015590;28;20197;-78
2021/01/25 06:51:00;;;;;;;17.88;12.50;;;;;;;;;;5016157;28;20179;-81
2021/01/25 06:53:26;;;;;;;19.55;14.38;;;;;;;;;;5015736;28;20574;-78
2021/01/25 06:55:58;;;;;;;19.02;14.23;;;;;;;;;;5015823;28;20247;-80
2021/01/25 06:58:25;;;;;;;24.08;16.45;;;;;;;;;;5015436;28;20760;-80
2021/01/25 07:00:53;;;;;;;28.20;17.73;;;;;;;;;;5014162;28;20235;-78
2021/01/25 07:03:22;;;;;;;21.75;14.07;;;;;;;;;;5015369;28;20184;-78
2021/01/25 07:05:49;;;;;;;22.10;15.75;;;;;;;;;;5015588;28;20184;-78
2021/01/25 07:08:21;;;;;;;22.00;15.05;;;;;;;;;;5015164;28;20204;-80
2021/01/25 07:10:48;;;;;;;21.90;15.55;;;;;;;;;;5015237;28;20709;-79
2021/01/25 07:13:15;;;;;;;20.35;15.80;;;;;;;;;;5015166;28;20552;-79
2021/01/25 07:15:41;;;;;;;22.98;15.30;;;;;;;;;;5015428;28;20172;-79
2021/01/25 07:18:07;;;;;;;23.23;16.38;;;;;;;;;;5013725;28;20253;-80
2021/01/25 07:20:33;;;;;;;24.42;17.60;;;;;;;;;;5015239;28;20189;-79
2021/01/25 07:22:59;;;;;;;22.50;16.23;;;;;;;;;;5015122;28;20223;-78
2021/01/25 07:25:28;;;;;;;28.15;17.90;;;;;;;;;;5015034;28;20416;-79
2021/01/25 07:28:04;;;;;;;23.38;16.80;;;;;;;;;;5014640;28;20267;-78
2021/01/25 07:30:32;;;;;;;20.67;15.43;;;;;;;;;;5015072;28;20172;-80
2021/01/25 07:33:05;;;;;;;26.05;16.38;;;;;;;;;;5015303;28;20180;-78
2021/01/25 07:35:32;;;;;;;25.30;15.95;;;;;;;;;;5015024;28;20171;-78
2021/01/25 07:37:58;;;;;;;25.20;17.38;;;;;;;;;;5014878;28;20203;-79
2021/01/25 07:40:24;;;;;;;29.55;17.30;;;;;;;;;;5015139;28;20173;-79
2021/01/25 07:42:51;;;;;;;30.52;16.73;;;;;;;;;;5014902;28;20564;-79
2021/01/25 07:45:17;;;;;;;31.17;18.00;;;;;;;;;;5015015;28;20196;-78
2021/01/25 07:47:46;;;;;;;23.25;16.20;;;;;;;;;;5013379;28;20201;-78
2021/01/25 07:50:13;;;;;;;24.85;17.75;;;;;;;;;;5022620;28;20185;-78
2021/01/25 07:52:39;;;;;;;19.63;14.50;;;;;;;;;;5023045;28;20627;-77
2021/01/25 07:55:11;;;;;;;22.58;15.73;;;;;;;;;;5022982;28;20203;-78
2021/01/25 07:57:37;;;;;;;24.10;15.80;;;;;;;;;;5025315;28;20185;-78
2021/01/25 08:00:13;;;;;;;20.63;15.93;;;;;;;;;;5024377;28;20730;-77
2021/01/25 08:02:39;;;;;;;20.63;14.43;;;;;;;;;;5024854;28;20404;-78
2021/01/25 08:05:06;;;;;;;26.08;17.50;;;;;;;;;;5022600;28;20588;-78
2021/01/25 08:07:32;;;;;;;25.17;16.88;;;;;;;;;;5017685;28;20206;-77
2021/01/25 08:09:58;;;;;;;24.98;15.90;;;;;;;;;;5014491;28;20241;-78
2021/01/25 08:12:25;;;;;;;27.10;17.95;;;;;;;;;;5014832;28;20689;-79
2021/01/25 08:15:00;;;;;;;25.23;16.25;;;;;;;;;;5014809;28;20208;-78
2021/01/25 08:17:30;;;;;;;23.73;16.67;;;;;;;;;;5014349;28;20192;-77
2021/01/25 08:20:04;;;;;;;24.83;15.77;;;;;;;;;;5014944;28;20198;-78
2021/01/25 08:22:37;;;;;;;23.63;16.50;;;;;;;;;;5014626;28;20176;-79
2021/01/25 08:25:03;;;;;;;19.85;14.95;;;;;;;;;;5014556;28;20183;-78
2021/01/25 08:27:34;;;;;;;23.63;17.08;;;;;;;;;;5014074;28;20246;-77
2021/01/25 08:30:19;;;;;;;24.42;16.15;;;;;;;;;;5014307;28;20192;-78
2021/01/25 08:32:47;;;;;;;26.63;16.00;;;;;;;;;;5014118;28;20179;-78
2021/01/25 08:35:14;;;;;;;26.90;17.73;;;;;;;;;;5012686;28;20613;-78
2021/01/25 08:37:40;;;;;;;24.83;17.98;;;;;;;;;;5013484;28;20201;-78
2021/01/25 08:40:16;;;;;;;27.75;19.30;;;;;;;;;;5013813;28;20170;-80
2021/01/25 08:42:43;;;;;;;26.45;18.17;;;;;;;;;;5013760;28;20169;-77
2021/01/25 08:45:11;;;;;;;25.30;17.95;;;;;;;;;;5013957;28;20225;-78
2021/01/25 08:47:37;;;;;;;23.70;16.50;;;;;;;;;;5013336;28;20221;-78
2021/01/25 08:50:04;;;;;;;27.90;17.60;;;;;;;;;;5014040;28;20227;-77
2021/01/25 08:52:31;;;;;;;23.02;17.25;;;;;;;;;;5013819;28;20177;-79
2021/01/25 08:55:07;;;;;;;31.33;20.00;;;;;;;;;;5013886;28;20270;-80
2021/01/25 08:57:35;;;;;;;26.67;18.00;;;;;;;;;;5013379;28;20201;-79
2021/01/25 09:00:11;;;;;;;29.58;17.23;;;;;;;;;;5013573;28;20179;-77
2021/01/25 09:02:37;;;;;;;23.92;15.85;;;;;;;;;;5013573;28;20172;-77
2021/01/25 09:05:03;;;;;;;29.98;18.27;;;;;;;;;;5012394;28;20211;-78
2021/01/25 09:07:29;;;;;;;27.90;18.50;;;;;;;;;;5013307;28;20195;-79
2021/01/25 09:09:55;;;;;;;27.35;17.75;;;;;;;;;;5013412;28;20600;-78
2021/01/25 09:12:21;;;;;;;27.05;17.73;;;;;;;;;;5013415;28;20179;-79
2021/01/25 09:14:48;;;;;;;33.90;19.90;;;;;;;;;;5013574;28;20257;-76
2021/01/25 09:17:14;;;;;;;27.83;17.70;;;;;;;;;;5011931;28;20196;-77
2021/01/25 09:19:40;;;;;;;34.60;18.60;;;;;;;;;;5014034;28;20175;-79
2021/01/25 09:22:07;;;;;;;30.27;18.73;;;;;;;;;;5014495;28;20191;-77
2021/01/25 09:24:33;;;;;;;26.63;18.10;;;;;;;;;;5015368;28;20514;-77
2021/01/25 09:26:59;;;;;;;32.85;20.83;;;;;;;;;;5014334;28;20238;-78
2021/01/25 09:29:25;;;;;;;28.47;19.03;;;;;;;;;;5013463;28;20188;-77
2021/01/25 09:31:51;;;;;;;33.67;20.70;;;;;;;;;;5013294;28;20449;-77
2021/01/25 09:34:17;;;;;;;32.55;20.70;;;;;;;;;;5011902;28;20203;-79
2021/01/25 09:36:43;;;;;;;36.13;22.40;;;;;;;;;;5012892;28;20176;-77
2021/01/25 09:39:10;;;;;;;35.10;22.73;;;;;;;;;;5013275;28;20220;-78
2021/01/25 09:41:36;;;;;;;31.67;20.90;;;;;;;;;;5011954;28;20721;-77
2021/01/25 09:44:03;;;;;;;29.15;21.15;;;;;;;;;;5013621;28;20228;-79
2021/01/25 09:46:29;;;;;;;30.23;20.77;;;;;;;;;;5012851;28;20641;-77
2021/01/25 09:48:55;;;;;;;31.85;21.33;;;;;;;;;;5012719;28;20289;-77
2021/01/25 09:51:21;;;;;;;40.83;23.25;;;;;;;;;;5011920;28;20588;-80
2021/01/25 09:53:47;;;;;;;40.63;20.77;;;;;;;;;;5013056;28;20254;-79
2021/01/25 09:56:13;;;;;;;33.92;20.80;;;;;;;;;;5013146;28;20500;-77
2021/01/25 09:58:39;;;;;;;36.20;19.23;;;;;;;;;;5012570;28;20194;-78
2021/01/25 10:01:05;;;;;;;37.92;20.23;;;;;;;;;;5012911;28;20182;-78
2021/01/25 10:03:31;;;;;;;32.58;19.52;;;;;;;;;;5013094;28;20542;-78
2021/01/25 10:05:57;;;;;;;30.42;19.77;;;;;;;;;;5013082;28;20179;-77
2021/01/25 10:08:23;;;;;;;28.13;19.47;;;;;;;;;;5012667;28;20261;-78
2021/01/25 10:10:49;;;;;;;29.70;19.40;;;;;;;;;;5014988;28;20517;-78
2021/01/25 10:13:15;;;;;;;29.63;19.30;;;;;;;;;;5016597;28;20462;-76
2021/01/25 10:15:41;;;;;;;27.30;17.98;;;;;;;;;;5016566;28;20419;-77
2021/01/25 10:18:07;;;;;;;27.35;16.73;;;;;;;;;;5016289;28;20195;-79
2021/01/25 10:20:33;;;;;;;31.13;19.37;;;;;;;;;;5016321;28;20223;-77
2021/01/25 10:22:59;;;;;;;36.05;17.98;;;;;;;;;;5016450;28;20407;-78
2021/01/25 10:25:25;;;;;;;26.65;18.75;;;;;;;;;;5016272;28;20232;-78
2021/01/25 10:27:52;;;;;;;30.63;19.40;;;;;;;;;;5015825;28;20210;-78
2021/01/25 10:30:19;;;;;;;27.48;18.25;;;;;;;;;;5016223;28;20173;-78
2021/01/25 10:32:45;;;;;;;30.75;18.30;;;;;;;;;;5016232;28;20173;-77
2021/01/25 10:35:11;;;;;;;25.95;18.33;;;;;;;;;;5015961;28;20197;-78
2021/01/25 10:37:38;;;;;;;26.75;18.65;;;;;;;;;;5015751;28;20195;-77
2021/01/25 10:40:04;;;;;;;29.33;18.90;;;;;;;;;;5016179;28;20680;-79
2021/01/25 10:42:31;;;;;;;31.67;19.35;;;;;;;;;;5015997;28;20641;-78
2021/01/25 10:44:57;;;;;;;30.20;19.38;;;;;;;;;;5015968;28;20227;-78
2021/01/25 10:47:23;;;;;;;27.15;18.60;;;;;;;;;;5015687;28;20208;-78
2021/01/25 10:49:50;;;;;;;28.55;18.73;;;;;;;;;;5015803;28;20182;-78
2021/01/25 10:52:16;;;;;;;28.65;18.77;;;;;;;;;;5015903;28;20306;-78
2021/01/25 10:54:43;;;;;;;30.30;19.23;;;;;;;;;;5015738;28;20667;-78
2021/01/25 10:57:09;;;;;;;32.45;19.75;;;;;;;;;;5015227;28;20199;-76
2021/01/25 10:59:35;;;;;;;31.07;19.90;;;;;;;;;;5015704;28;20638;-77
2021/01/25 11:02:02;;;;;;;32.55;20.52;;;;;;;;;;5015727;28;20440;-77
2021/01/25 11:04:28;;;;;;;29.50;21.73;;;;;;;;;;5014391;28;20202;-78
2021/01/25 11:06:54;;;;;;;31.23;20.33;;;;;;;;;;5015271;28;20182;-78
2021/01/25 11:09:20;;;;;;;27.45;18.20;;;;;;;;;;5015274;28;20212;-78
2021/01/25 11:11:46;;;;;;;27.95;19.58;;;;;;;;;;5015318;28;20706;-78
2021/01/25 11:14:12;;;;;;;24.27;16.53;;;;;;;;;;5014166;28;20201;-76
2021/01/25 11:16:38;;;;;;;24.20;17.38;;;;;;;;;;5013673;28;20816;-77
2021/01/25 11:19:04;;;;;;;26.17;17.90;;;;;;;;;;5015338;28;20202;-77
2021/01/25 11:21:30;;;;;;;32.80;16.50;;;;;;;;;;5013893;28;20530;-76
2021/01/25 11:23:56;;;;;;;24.60;16.45;;;;;;;;;;5015075;28;20445;-77
2021/01/25 11:26:25;;;;;;;23.38;14.50;;;;;;;;;;5015182;28;20191;-76
2021/01/25 11:28:51;;;;;;;20.52;14.20;;;;;;;;;;5014639;28;20282;-78
2021/01/25 11:31:17;;;;;;;21.02;14.68;;;;;;;;;;5014838;28;20181;-77
2021/01/25 11:33:43;;;;;;;33.43;16.67;;;;;;;;;;5014753;28;20202;-77
2021/01/25 11:36:09;;;;;;;22.17;14.57;;;;;;;;;;5015063;28;20493;-77
2021/01/25 11:38:35;;;;;;;20.35;15.57;;;;;;;;;;5014490;28;20426;-77
2021/01/25 11:41:02;;;;;;;30.55;16.63;;;;;;;;;;5015364;28;20221;-77
2021/01/25 11:43:28;;;;;;;21.33;14.50;;;;;;;;;;5015059;28;20183;-77
2021/01/25 11:45:54;;;;;;;19.33;12.68;;;;;;;;;;5013860;28;20638;-77
2021/01/25 11:48:21;;;;;;;18.50;13.80;;;;;;;;;;5014665;28;20240;-76
2021/01/25 11:50:47;;;;;;;14.02;11.55;;;;;;;;;;5014857;28;20542;-77
2021/01/25 11:53:13;;;;;;;17.35;12.57;;;;;;;;;;5014734;28;20220;-77
2021/01/25 11:55:43;;;;;;;17.02;11.50;;;;;;;;;;5014739;28;20181;-78
2021/01/25 11:58:09;;;;;;;18.88;11.00;;;;;;;;;;5014325;28;20194;-78
2021/01/25 12:00:35;;;;;;;16.52;10.98;;;;;;;;;;5014483;28;20232;-76
2021/01/25 12:03:02;;;;;;;19.15;11.32;;;;;;;;;;5014440;28;20193;-76
2021/01/25 12:05:28;;;;;;;21.02;11.95;;;;;;;;;;5014376;28;20181;-76
2021/01/25 12:07:54;;;;;;;17.20;12.18;;;;;;;;;;5013922;28;20197;-76
2021/01/25 12:10:20;;;;;;;18.98;12.18;;;;;;;;;;5014354;28;20182;-77
2021/01/25 12:12:46;;;;;;;17.88;11.88;;;;;;;;;;5014233;28;20178;-77
2021/01/25 12:15:12;;;;;;;19.23;13.67;;;;;;;;;;5014341;28;20221;-77
2021/01/25 12:17:39;;;;;;;18.17;14.30;;;;;;;;;;5013811;28;20436;-77
2021/01/25 12:20:06;;;;;;;21.95;15.13;;;;;;;;;;5014327;28;20196;-78
2021/01/25 12:22:32;;;;;;;27.08;16.52;;;;;;;;;;5014134;28;20182;-78
2021/01/25 12:24:58;;;;;;;26.50;16.75;;;;;;;;;;5014029;28;20178;-77
2021/01/25 12:27:23;;;;;;;28.27;17.27;;;;;;;;;;5013690;28;20212;-76
2021/01/25 12:29:49;;;;;;;24.90;17.43;;;;;;;;;;5013925;28;20413;-78
2021/01/25 12:32:15;;;;;;;25.67;17.37;;;;;;;;;;5013527;28;20420;-77
2021/01/25 12:34:42;;;;;;;20.88;15.32;;;;;;;;;;5012511;28;20473;-76
2021/01/25 12:37:08;;;;;;;19.08;12.82;;;;;;;;;;5013514;28;20564;-77
2021/01/25 12:39:34;;;;;;;21.02;14.30;;;;;;;;;;5013807;28;20169;-76
2021/01/25 12:42:00;;;;;;;21.67;14.90;;;;;;;;;;5013550;28;20222;-77
2021/01/25 12:44:26;;;;;;;20.60;14.02;;;;;;;;;;5013834;28;20197;-76
2021/01/25 12:46:55;;;;;;;18.40;10.30;;;;;;;;;;5013287;28;20257;-77
2021/01/25 12:49:21;;;;;;;19.05;14.20;;;;;;;;;;5013683;28;20631;-79
2021/01/25 12:51:47;;;;;;;15.07;12.00;;;;;;;;;;5013646;28;20185;-77
2021/01/25 12:54:13;;;;;;;16.92;11.68;;;;;;;;;;5012222;28;20973;-77
2021/01/25 12:56:39;;;;;;;21.70;12.27;;;;;;;;;;5013192;28;20245;-78
2021/01/25 12:59:06;;;;;;;19.52;14.75;;;;;;;;;;5013407;28;20196;-78
2021/01/25 13:01:32;;;;;;;16.65;12.68;;;;;;;;;;5013511;28;20174;-77
2021/01/25 13:03:58;;;;;;;19.25;13.88;;;;;;;;;;5013709;28;20188;-77
2021/01/25 13:06:24;;;;;;;16.50;13.90;;;;;;;;;;5013567;28;20179;-78
2021/01/25 13:08:50;;;;;;;21.17;16.02;;;;;;;;;;5013011;28;20442;-77
2021/01/25 13:11:16;;;;;;;18.33;14.45;;;;;;;;;;5013225;28;20196;-78
2021/01/25 13:13:42;;;;;;;22.08;15.52;;;;;;;;;;5013268;28;20205;-77
2021/01/25 13:16:08;;;;;;;24.07;16.50;;;;;;;;;;5013348;28;20217;-77
2021/01/25 13:18:34;;;;;;;23.65;15.07;;;;;;;;;;5012822;28;20440;-77
2021/01/25 13:21:01;;;;;;;20.10;12.40;;;;;;;;;;5013448;28;20632;-77
2021/01/25 13:23:27;;;;;;;16.20;12.00;;;;;;;;;;5013236;28;20467;-77
2021/01/25 13:25:53;;;;;;;15.82;11.65;;;;;;;;;;5013232;28;20643;-78
2021/01/25 13:28:19;;;;;;;14.57;12.10;;;;;;;;;;5012786;28;20210;-78
2021/01/25 13:30:45;;;;;;;18.70;12.70;;;;;;;;;;5013415;28;20914;-78
2021/01/25 13:33:11;;;;;;;18.70;13.40;;;;;;;;;;5013211;28;20559;-78
2021/01/25 13:35:37;;;;;;;19.52;14.60;;;;;;;;;;5013173;28;20167;-78
2021/01/25 13:38:03;;;;;;;22.73;14.90;;;;;;;;;;5012904;28;20202;-78
2021/01/25 13:40:30;;;;;;;20.80;12.80;;;;;;;;;;5012952;28;20179;-77
2021/01/25 13:42:56;;;;;;;18.90;14.30;;;;;;;;;;5013341;28;20170;-77
2021/01/25 13:45:23;;;;;;;19.45;13.55;;;;;;;;;;5014938;28;20178;-77
2021/01/25 13:47:49;;;;;;;18.02;14.15;;;;;;;;;;5016408;28;20286;-77
2021/01/25 13:50:16;;;;;;;22.92;14.18;;;;;;;;;;5017343;28;20257;-78
2021/01/25 13:52:42;;;;;;;18.27;12.52;;;;;;;;;;5016987;28;20240;-78
2021/01/25 13:55:08;;;;;;;20.20;15.52;;;;;;;;;;5016813;28;20238;-77
2021/01/25 13:57:35;;;;;;;16.48;12.90;;;;;;;;;;5016444;28;20591;-77
2021/01/25 14:00:01;;;;;;;19.45;13.18;;;;;;;;;;5019307;28;20187;-76
2021/01/25 14:02:27;;;;;;;15.67;11.13;;;;;;;;;;5016631;28;20610;-76
2021/01/25 14:04:53;;;;;;;15.90;11.60;;;;;;;;;;5016602;28;20493;-77
2021/01/25 14:07:19;;;;;;;15.07;12.25;;;;;;;;;;5016295;28;20233;-77
2021/01/25 14:09:45;;;;;;;13.52;11.93;;;;;;;;;;5016471;28;20191;-78
2021/01/25 14:12:11;;;;;;;17.73;11.80;;;;;;;;;;5016461;28;20229;-77
2021/01/25 14:14:37;;;;;;;17.35;12.35;;;;;;;;;;5016531;28;20489;-77
2021/01/25 14:17:03;;;;;;;16.33;11.48;;;;;;;;;;5016243;28;20607;-77
2021/01/25 14:19:29;;;;;;;19.83;13.98;;;;;;;;;;5016570;28;20235;-79